Time;durP1;ratioP1;P1;durP2;ratioP2;P2;SDS_P1;SDS_P2;PMS_P1;PMS_P2;Temp;Humidity;BMP_temperature;BMP_pressure;BME280_temperature;BME280_humidity;BME280_pressure;Samples;Min_cycle;Max_cycle;Signal;HPM_P1;HPM_P2
2022/08/18 00:02:09;;;;;;;6.50;5.10;;;;;;;;;;4974184;28;20035;-84
2022/08/18 00:04:37;;;;;;;8.05;5.43;;;;;;;;;;4973597;28;20042;-84
2022/08/18 00:07:12;;;;;;;6.82;5.63;;;;;;;;;;4982364;28;20034;-84
2022/08/18 00:09:39;;;;;;;11.05;5.15;;;;;;;;;;4964886;28;20045;-84
2022/08/18 00:12:08;;;;;;;7.63;5.27;;;;;;;;;;4969294;28;20040;-85
2022/08/18 00:14:34;;;;;;;7.22;5.20;;;;;;;;;;4954912;28;20060;-84
2022/08/18 00:17:01;;;;;;;6.50;5.00;;;;;;;;;;4968107;28;20027;-84
2022/08/18 00:19:26;;;;;;;6.47;5.28;;;;;;;;;;4953908;28;20035;-84
2022/08/18 00:21:54;;;;;;;7.80;5.53;;;;;;;;;;4970362;28;20513;-84
2022/08/18 00:24:21;;;;;;;10.65;5.68;;;;;;;;;;4977317;28;20034;-84
2022/08/18 00:26:48;;;;;;;7.60;5.75;;;;;;;;;;4972953;28;20458;-85
2022/08/18 00:29:14;;;;;;;7.80;5.15;;;;;;;;;;4975831;28;20035;-84
2022/08/18 00:31:41;;;;;;;7.13;5.00;;;;;;;;;;4975677;28;20455;-84
2022/08/18 00:34:08;;;;;;;8.00;5.22;;;;;;;;;;4960760;28;20041;-84
2022/08/18 00:36:34;;;;;;;7.13;5.40;;;;;;;;;;4979310;28;20534;-82
2022/08/18 00:39:00;;;;;;;8.60;5.30;;;;;;;;;;4975979;28;20117;-84
2022/08/18 00:41:26;;;;;;;8.35;5.50;;;;;;;;;;4954128;28;20034;-84
2022/08/18 00:43:54;;;;;;;9.18;5.70;;;;;;;;;;4971162;28;20030;-84
2022/08/18 00:46:32;;;;;;;7.15;5.40;;;;;;;;;;4979600;28;20058;-84
2022/08/18 00:48:58;;;;;;;7.45;5.07;;;;;;;;;;4973529;28;20095;-84
2022/08/18 00:51:38;;;;;;;6.57;5.85;;;;;;;;;;4969017;28;20394;-84
2022/08/18 00:54:15;;;;;;;8.57;5.55;;;;;;;;;;4956980;28;20035;-84
2022/08/18 00:56:47;;;;;;;8.88;5.78;;;;;;;;;;4967213;28;20059;-84
2022/08/18 00:59:12;;;;;;;9.10;5.50;;;;;;;;;;4969383;28;20093;-85
2022/08/18 01:01:40;;;;;;;8.70;5.65;;;;;;;;;;4974988;28;20034;-85
2022/08/18 01:04:14;;;;;;;;;;;;;;;;;;4982491;28;20089;-84
2022/08/18 01:06:51;;;;;;;7.35;5.28;;;;;;;;;;4973144;28;20946;-84
2022/08/18 01:09:17;;;;;;;8.65;5.80;;;;;;;;;;4958079;28;20039;-84
2022/08/18 01:11:44;;;;;;;9.00;5.43;;;;;;;;;;4976041;28;20049;-84
2022/08/18 01:14:14;;;;;;;6.75;5.30;;;;;;;;;;4979682;28;20042;-83
2022/08/18 01:22:49;;;;;;;8.98;5.80;;;;;;;;;;4968638;28;20115;-83
2022/08/18 01:28:02;;;;;;;8.18;5.85;;;;;;;;;;4972878;28;20096;-84
2022/08/18 01:30:30;;;;;;;9.10;5.50;;;;;;;;;;4975489;28;22102;-83
2022/08/18 01:32:57;;;;;;;7.78;5.57;;;;;;;;;;4975175;28;20066;-84
2022/08/18 01:35:24;;;;;;;;;;;;;;;;;;4973523;28;20039;-83
2022/08/18 01:37:51;;;;;;;10.07;5.87;;;;;;;;;;4967786;28;20008;-83
2022/08/18 01:40:21;;;;;;;8.77;6.35;;;;;;;;;;4981816;28;20274;-84
2022/08/18 01:42:46;;;;;;;11.35;6.07;;;;;;;;;;4962771;28;20061;-84
2022/08/18 01:45:16;;;;;;;7.10;5.55;;;;;;;;;;4962064;28;20035;-84
2022/08/18 01:47:43;;;;;;;7.22;5.75;;;;;;;;;;4965622;28;20031;-84
2022/08/18 01:50:12;;;;;;;6.77;5.70;;;;;;;;;;4991941;28;20399;-84
2022/08/18 01:52:38;;;;;;;8.52;6.07;;;;;;;;;;4989428;28;20088;-84
2022/08/18 01:55:06;;;;;;;10.07;6.50;;;;;;;;;;4984181;28;20090;-84
2022/08/18 01:57:34;;;;;;;10.13;5.78;;;;;;;;;;4962431;28;20038;-84
2022/08/18 02:00:00;;;;;;;7.72;6.00;;;;;;;;;;4972397;28;20102;-84
2022/08/18 02:02:31;;;;;;;6.57;5.70;;;;;;;;;;4962899;28;20039;-84
2022/08/18 02:05:01;;;;;;;9.65;6.15;;;;;;;;;;4989077;28;20054;-84
2022/08/18 02:07:28;;;;;;;11.20;5.90;;;;;;;;;;5001018;28;20026;-83
2022/08/18 02:09:53;;;;;;;9.77;6.40;;;;;;;;;;4983018;28;20118;-85
2022/08/18 02:12:19;;;;;;;8.20;6.07;;;;;;;;;;4971360;28;20118;-84
2022/08/18 02:14:45;;;;;;;6.80;5.68;;;;;;;;;;4984686;28;20088;-83
2022/08/18 02:17:12;;;;;;;7.95;6.15;;;;;;;;;;4954992;28;20176;-84
2022/08/18 02:19:44;;;;;;;8.35;6.47;;;;;;;;;;4980689;28;20046;-83
2022/08/18 02:22:11;;;;;;;10.68;6.00;;;;;;;;;;4968312;28;20039;-83
2022/08/18 02:24:37;;;;;;;10.43;5.97;;;;;;;;;;4963282;28;20498;-83
2022/08/18 02:27:03;;;;;;;11.20;6.40;;;;;;;;;;4991942;28;20053;-83
2022/08/18 02:29:30;;;;;;;8.85;6.18;;;;;;;;;;4962722;28;20042;-83
2022/08/18 02:31:55;;;;;;;8.07;6.07;;;;;;;;;;4975780;28;20034;-84
2022/08/18 02:34:21;;;;;;;7.50;6.03;;;;;;;;;;4961826;28;20062;-83
2022/08/18 02:36:47;;;;;;;8.35;6.47;;;;;;;;;;4982230;28;20056;-83
2022/08/18 02:39:12;;;;;;;7.47;5.97;;;;;;;;;;4966942;28;20130;-83
2022/08/18 02:41:38;;;;;;;8.45;6.25;;;;;;;;;;4989348;28;20030;-84
2022/08/18 02:44:06;;;;;;;9.88;6.32;;;;;;;;;;4985681;28;20449;-83
2022/08/18 02:46:32;;;;;;;8.63;6.35;;;;;;;;;;5003358;28;20034;-83
2022/08/18 02:49:00;;;;;;;8.10;6.45;;;;;;;;;;5003424;28;20594;-83
2022/08/18 02:51:26;;;;;;;7.78;6.10;;;;;;;;;;4954593;28;20482;-83
2022/08/18 02:53:53;;;;;;;8.52;6.72;;;;;;;;;;5002030;28;20034;-84
2022/08/18 02:56:23;;;;;;;7.93;6.70;;;;;;;;;;4987424;28;20033;-83
2022/08/18 02:59:03;;;;;;;7.07;5.88;;;;;;;;;;4979487;28;20030;-83
2022/08/18 03:01:31;;;;;;;8.52;6.13;;;;;;;;;;4973479;28;20504;-82
2022/08/18 03:03:57;;;;;;;9.48;7.28;;;;;;;;;;4999282;28;20040;-82
2022/08/18 03:06:24;;;;;;;10.77;7.65;;;;;;;;;;4994134;28;20109;-81
2022/08/18 03:08:52;;;;;;;11.15;7.80;;;;;;;;;;4999546;28;20034;-82
2022/08/18 03:11:22;;;;;;;10.55;6.95;;;;;;;;;;4962682;28;20042;-82
2022/08/18 03:13:49;;;;;;;9.90;7.10;;;;;;;;;;4954668;28;20048;-82
2022/08/18 03:16:15;;;;;;;10.60;7.30;;;;;;;;;;5000890;28;20495;-82
2022/08/18 03:18:43;;;;;;;10.68;6.88;;;;;;;;;;4979741;28;20062;-82
2022/08/18 03:21:13;;;;;;;8.27;7.05;;;;;;;;;;4995807;28;20449;-82
2022/08/18 03:23:42;;;;;;;10.35;7.20;;;;;;;;;;4962741;28;20490;-82
2022/08/18 03:26:10;;;;;;;8.65;7.30;;;;;;;;;;4945693;28;20035;-82
2022/08/18 03:28:39;;;;;;;9.02;7.28;;;;;;;;;;4971856;28;20798;-82
2022/08/18 03:31:05;;;;;;;8.93;7.30;;;;;;;;;;4957913;28;20030;-81
2022/08/18 03:33:31;;;;;;;10.15;7.43;;;;;;;;;;4968109;28;20026;-81
2022/08/18 03:36:03;;;;;;;11.43;6.93;;;;;;;;;;4989818;28;20394;-81
2022/08/18 03:38:29;;;;;;;11.32;7.65;;;;;;;;;;4981115;28;20035;-81
2022/08/18 03:40:54;;;;;;;11.05;7.25;;;;;;;;;;4996707;28;20102;-82
2022/08/18 03:43:21;;;;;;;9.70;7.15;;;;;;;;;;5010019;28;20026;-82
2022/08/18 03:45:46;;;;;;;8.38;7.20;;;;;;;;;;4990390;28;20061;-82
2022/08/18 03:48:12;;;;;;;9.07;7.38;;;;;;;;;;4979907;28;20035;-82
2022/08/18 03:50:37;;;;;;;8.88;7.47;;;;;;;;;;4992188;28;20117;-82
2022/08/18 03:53:04;;;;;;;12.20;8.13;;;;;;;;;;4976411;28;20568;-82
2022/08/18 03:55:31;;;;;;;8.82;7.57;;;;;;;;;;4977549;28;20385;-82
2022/08/18 03:57:58;;;;;;;10.73;7.70;;;;;;;;;;4992252;28;20558;-82
2022/08/18 04:00:26;;;;;;;9.30;7.22;;;;;;;;;;4999066;28;20044;-82
2022/08/18 04:02:51;;;;;;;9.93;7.60;;;;;;;;;;4943055;28;20483;-83
2022/08/18 04:05:17;;;;;;;10.45;7.80;;;;;;;;;;4943822;28;20043;-82
2022/08/18 04:07:42;;;;;;;9.20;7.43;;;;;;;;;;4978216;28;20037;-82
2022/08/18 04:10:08;;;;;;;10.68;8.13;;;;;;;;;;4981088;28;20489;-82
2022/08/18 04:12:35;;;;;;;9.40;7.78;;;;;;;;;;4944433;28;20042;-82
2022/08/18 04:15:02;;;;;;;10.75;7.55;;;;;;;;;;4971988;28;20042;-82
2022/08/18 04:17:29;;;;;;;10.43;7.70;;;;;;;;;;4964939;28;20478;-81
2022/08/18 04:19:55;;;;;;;11.13;8.02;;;;;;;;;;4967362;28;20042;-82
2022/08/18 04:22:23;;;;;;;10.38;7.88;;;;;;;;;;4970417;28;20031;-83
2022/08/18 04:24:49;;;;;;;10.65;7.72;;;;;;;;;;4981730;28;20030;-82
2022/08/18 04:27:15;;;;;;;13.18;8.20;;;;;;;;;;4980677;28;20721;-82
2022/08/18 04:29:40;;;;;;;8.80;7.53;;;;;;;;;;4970011;28;20050;-82
2022/08/18 04:32:06;;;;;;;10.00;7.82;;;;;;;;;;4951847;28;20027;-83
2022/08/18 04:34:33;;;;;;;11.80;8.25;;;;;;;;;;4958628;28;20085;-82
2022/08/18 04:37:00;;;;;;;12.55;9.43;;;;;;;;;;4986366;28;20445;-83
2022/08/18 04:39:25;;;;;;;9.70;7.97;;;;;;;;;;4964572;28;20030;-82
2022/08/18 04:41:54;;;;;;;10.60;8.05;;;;;;;;;;4983588;28;20043;-85
2022/08/18 04:44:20;;;;;;;10.63;7.75;;;;;;;;;;4970546;28;20504;-83
2022/08/18 04:47:11;;;;;;;10.02;7.85;;;;;;;;;;4963674;28;20035;-83
2022/08/18 04:49:37;;;;;;;10.27;8.23;;;;;;;;;;4952882;28;20038;-83
2022/08/18 04:54:48;;;;;;;11.52;8.27;;;;;;;;;;4982821;28;20532;-83
2022/08/18 04:57:17;;;;;;;10.13;8.18;;;;;;;;;;4960300;28;20034;-84
2022/08/18 04:59:44;;;;;;;11.70;8.45;;;;;;;;;;4979901;28;20030;-84
2022/08/18 05:02:10;;;;;;;11.45;8.05;;;;;;;;;;4967331;28;20035;-83
2022/08/18 05:04:40;;;;;;;12.52;8.85;;;;;;;;;;4956214;28;20030;-83
2022/08/18 05:07:09;;;;;;;10.65;8.30;;;;;;;;;;4952477;28;20085;-84
2022/08/18 05:09:36;;;;;;;11.13;8.00;;;;;;;;;;4962911;28;20046;-83
2022/08/18 05:12:03;;;;;;;11.98;9.02;;;;;;;;;;4962454;28;20050;-84
2022/08/18 05:14:29;;;;;;;10.93;9.02;;;;;;;;;;4936797;28;20410;-83
2022/08/18 05:16:58;;;;;;;10.55;8.82;;;;;;;;;;4970352;28;20041;-83
2022/08/18 05:19:25;;;;;;;10.18;8.65;;;;;;;;;;4970620;28;20047;-83
2022/08/18 05:21:52;;;;;;;10.65;8.25;;;;;;;;;;4979673;28;20482;-84
2022/08/18 05:24:18;;;;;;;11.90;8.00;;;;;;;;;;4954143;28;20070;-83
2022/08/18 05:26:44;;;;;;;10.02;7.88;;;;;;;;;;4949477;28;20073;-83
2022/08/18 05:29:12;;;;;;;12.90;8.18;;;;;;;;;;4971633;28;20046;-83
2022/08/18 05:31:39;;;;;;;11.00;7.80;;;;;;;;;;4968327;28;20469;-83
2022/08/18 05:34:05;;;;;;;12.68;8.48;;;;;;;;;;4972774;28;20059;-80
2022/08/18 05:36:45;;;;;;;9.95;8.05;;;;;;;;;;4952381;28;20073;-82
2022/08/18 05:39:18;;;;;;;11.02;7.97;;;;;;;;;;4951202;28;20042;-83
2022/08/18 05:42:01;;;;;;;10.32;8.50;;;;;;;;;;4958261;28;20062;-83
2022/08/18 05:44:29;;;;;;;11.10;8.52;;;;;;;;;;4941111;28;20035;-84
2022/08/18 05:46:58;;;;;;;12.95;8.90;;;;;;;;;;4969983;28;20523;-82
2022/08/18 05:49:25;;;;;;;12.50;8.82;;;;;;;;;;4972518;28;20038;-82
2022/08/18 05:51:57;;;;;;;11.53;8.80;;;;;;;;;;4973441;28;20046;-82
2022/08/18 05:57:16;;;;;;;9.85;8.13;;;;;;;;;;4964741;28;20038;-82
2022/08/18 05:59:42;;;;;;;11.25;8.52;;;;;;;;;;4961404;28;20034;-82
2022/08/18 06:02:13;;;;;;;11.63;9.05;;;;;;;;;;4945832;28;20038;-83
2022/08/18 06:04:50;;;;;;;14.82;8.82;;;;;;;;;;4973246;28;20521;-83
2022/08/18 06:07:18;;;;;;;10.50;7.97;;;;;;;;;;4973874;28;20094;-84
2022/08/18 06:09:50;;;;;;;10.98;7.70;;;;;;;;;;4961047;28;20503;-82
2022/08/18 06:12:25;;;;;;;10.50;8.50;;;;;;;;;;4962325;28;20506;-83
2022/08/18 06:14:51;;;;;;;11.55;8.60;;;;;;;;;;4949200;28;20089;-84
2022/08/18 06:17:34;;;;;;;10.68;7.82;;;;;;;;;;4964680;28;20029;-84
2022/08/18 06:20:10;;;;;;;11.82;7.70;;;;;;;;;;4975142;28;20489;-84
2022/08/18 06:22:42;;;;;;;11.15;7.63;;;;;;;;;;4966400;28;20097;-83
2022/08/18 06:25:26;;;;;;;9.00;7.07;;;;;;;;;;4976934;28;20030;-83
2022/08/18 06:28:00;;;;;;;8.93;7.38;;;;;;;;;;4989613;28;20464;-83
2022/08/18 06:30:33;;;;;;;10.32;7.15;;;;;;;;;;4944098;28;20086;-83
2022/08/18 06:33:02;;;;;;;8.32;7.00;;;;;;;;;;4993812;28;20550;-83
2022/08/18 06:35:46;;;;;;;11.90;7.50;;;;;;;;;;4961570;28;20055;-82
2022/08/18 06:41:15;;;;;;;11.80;6.90;;;;;;;;;;4980133;28;20154;-83
2022/08/18 06:44:25;;;;;;;13.50;7.38;;;;;;;;;;4979192;28;20628;-83
2022/08/18 06:46:54;;;;;;;11.85;7.55;;;;;;;;;;4926621;28;20510;-83
2022/08/18 06:49:35;;;;;;;8.40;7.50;;;;;;;;;;4974788;28;20553;-83
2022/08/18 06:52:19;;;;;;;10.35;6.78;;;;;;;;;;4976747;28;20397;-84
2022/08/18 06:54:45;;;;;;;11.15;6.85;;;;;;;;;;4993613;28;20030;-83
2022/08/18 06:57:51;;;;;;;10.75;7.28;;;;;;;;;;4977089;28;20046;-82
2022/08/18 07:00:16;;;;;;;12.50;7.20;;;;;;;;;;4946728;28;20045;-83
2022/08/18 07:02:51;;;;;;;9.50;7.53;;;;;;;;;;4977026;28;20490;-83
2022/08/18 07:05:25;;;;;;;10.50;7.47;;;;;;;;;;4958743;28;20097;-83
2022/08/18 07:08:06;;;;;;;11.65;7.65;;;;;;;;;;4979699;28;20494;-83
2022/08/18 07:10:35;;;;;;;10.40;7.28;;;;;;;;;;4976048;28;20067;-85
2022/08/18 07:13:26;;;;;;;10.32;7.15;;;;;;;;;;4976152;28;20042;-85
2022/08/18 07:16:13;;;;;;;10.63;7.13;;;;;;;;;;4960509;28;20126;-83
2022/08/18 07:18:39;;;;;;;10.18;7.15;;;;;;;;;;4961270;28;20043;-84
2022/08/18 07:21:04;;;;;;;7.68;6.72;;;;;;;;;;4960450;28;20383;-83
2022/08/18 07:23:37;;;;;;;9.18;6.90;;;;;;;;;;4962491;28;20070;-83
2022/08/18 07:26:08;;;;;;;11.40;7.13;;;;;;;;;;4944859;28;20062;-83
2022/08/18 07:28:45;;;;;;;9.05;7.00;;;;;;;;;;4943596;28;20053;-84
2022/08/18 07:31:44;;;;;;;9.68;7.32;;;;;;;;;;4957197;28;20045;-83
2022/08/18 07:34:24;;;;;;;10.93;7.15;;;;;;;;;;4960909;28;20038;-83
2022/08/18 07:37:01;;;;;;;9.63;7.03;;;;;;;;;;4975166;28;20030;-83
2022/08/18 07:39:35;;;;;;;;;;;;;;;;;;4965555;28;20037;-83
2022/08/18 07:42:17;;;;;;;8.60;6.70;;;;;;;;;;4963095;28;19917;-84
2022/08/18 07:44:52;;;;;;;9.30;7.03;;;;;;;;;;4951105;28;20118;-83
2022/08/18 07:47:33;;;;;;;8.95;7.32;;;;;;;;;;4968329;28;20037;-83
2022/08/18 07:50:01;;;;;;;13.00;7.25;;;;;;;;;;4959082;28;20042;-84
2022/08/18 07:52:35;;;;;;;11.90;7.70;;;;;;;;;;4944062;28;20041;-83
2022/08/18 07:55:00;;;;;;;9.05;6.60;;;;;;;;;;4992620;28;20457;-83
2022/08/18 07:57:42;;;;;;;9.60;7.50;;;;;;;;;;4961934;28;20041;-82
2022/08/18 08:00:19;;;;;;;10.55;7.20;;;;;;;;;;4963278;28;20398;-83
2022/08/18 08:03:33;;;;;;;9.93;6.93;;;;;;;;;;4974468;28;20056;-83
2022/08/18 08:06:08;;;;;;;10.88;7.35;;;;;;;;;;4938665;28;20390;-83
2022/08/18 08:09:03;;;;;;;11.82;7.47;;;;;;;;;;4970861;28;20118;-84
2022/08/18 08:11:50;;;;;;;11.00;7.43;;;;;;;;;;4957571;28;20482;-83
2022/08/18 08:14:17;;;;;;;;;;;;;;;;;;4973827;28;20038;-83
2022/08/18 08:16:47;;;;;;;9.82;7.53;;;;;;;;;;4973239;28;20324;-84
2022/08/18 08:19:38;;;;;;;12.43;7.90;;;;;;;;;;4944362;28;20871;-84
2022/08/18 08:22:08;;;;;;;13.82;7.47;;;;;;;;;;4971004;28;20294;-83
2022/08/18 08:24:48;;;;;;;8.77;7.10;;;;;;;;;;4944013;28;20042;-83
2022/08/18 08:27:23;;;;;;;12.48;8.10;;;;;;;;;;4945240;28;20116;-83
2022/08/18 08:30:07;;;;;;;11.02;7.70;;;;;;;;;;4972431;28;20039;-83
2022/08/18 08:32:36;;;;;;;9.98;7.55;;;;;;;;;;4941506;28;20042;-83
2022/08/18 08:35:12;;;;;;;10.15;7.50;;;;;;;;;;4957751;28;20066;-84
2022/08/18 08:37:53;;;;;;;9.63;7.53;;;;;;;;;;4972216;28;20042;-84
2022/08/18 08:40:23;;;;;;;9.27;7.10;;;;;;;;;;4945414;28;20740;-83
2022/08/18 08:43:00;;;;;;;13.68;7.20;;;;;;;;;;4956941;28;20049;-84
2022/08/18 08:45:26;;;;;;;9.95;8.18;;;;;;;;;;4968640;28;20043;-83
2022/08/18 08:47:54;;;;;;;10.02;7.10;;;;;;;;;;4969071;28;20061;-83
2022/08/18 08:50:25;;;;;;;8.45;7.00;;;;;;;;;;4971274;28;20035;-83
2022/08/18 08:52:53;;;;;;;9.32;7.50;;;;;;;;;;4975316;28;20034;-83
2022/08/18 08:55:24;;;;;;;10.98;7.05;;;;;;;;;;4969729;28;20066;-83
2022/08/18 08:57:53;;;;;;;9.35;7.30;;;;;;;;;;4942952;28;20046;-84
2022/08/18 09:00:18;;;;;;;10.07;7.32;;;;;;;;;;4972916;28;20049;-83
2022/08/18 09:03:11;;;;;;;9.27;7.40;;;;;;;;;;4957302;28;20031;-83
2022/08/18 09:05:43;;;;;;;10.68;7.47;;;;;;;;;;4960937;28;20039;-84
2022/08/18 09:08:15;;;;;;;9.13;6.93;;;;;;;;;;4977962;28;20128;-84
2022/08/18 09:11:02;;;;;;;8.13;6.97;;;;;;;;;;4944723;28;20976;-83
2022/08/18 09:13:28;;;;;;;9.57;7.15;;;;;;;;;;4967105;28;20031;-84
2022/08/18 09:16:13;;;;;;;8.90;6.47;;;;;;;;;;4965138;28;20066;-85
2022/08/18 09:18:58;;;;;;;8.02;6.47;;;;;;;;;;4961422;28;20066;-84
2022/08/18 09:21:37;;;;;;;7.63;6.00;;;;;;;;;;4959419;28;20038;-84
2022/08/18 09:24:26;;;;;;;7.35;5.95;;;;;;;;;;4974499;28;20065;-85
2022/08/18 09:26:53;;;;;;;9.90;6.18;;;;;;;;;;4983321;28;20042;-84
2022/08/18 09:29:26;;;;;;;;;;;;;;;;;;4957654;28;20133;-85
2022/08/18 09:32:19;;;;;;;7.82;5.88;;;;;;;;;;4958173;28;19965;-84
2022/08/18 09:35:04;;;;;;;7.53;5.78;;;;;;;;;;4942221;28;20548;-84
2022/08/18 09:43:33;;;;;;;7.35;5.32;;;;;;;;;;4968303;28;20461;-85
2022/08/18 09:46:03;;;;;;;8.80;5.72;;;;;;;;;;4937478;28;20391;-85
2022/08/18 09:48:35;;;;;;;10.20;6.28;;;;;;;;;;4971002;28;20039;-84
2022/08/18 09:51:14;;;;;;;8.13;5.90;;;;;;;;;;4977016;28;20467;-85
2022/08/18 09:53:45;;;;;;;8.35;6.50;;;;;;;;;;4975990;28;20049;-84
2022/08/18 09:56:15;;;;;;;7.80;6.38;;;;;;;;;;4966508;28;20034;-85
2022/08/18 09:58:55;;;;;;;9.07;6.05;;;;;;;;;;4965818;28;20573;-85
2022/08/18 10:01:33;;;;;;;8.00;5.80;;;;;;;;;;4959414;28;20046;-85
2022/08/18 10:04:13;;;;;;;8.00;5.70;;;;;;;;;;4985429;28;20038;-84
2022/08/18 10:06:39;;;;;;;7.18;5.55;;;;;;;;;;4969652;28;20092;-86
2022/08/18 10:09:17;;;;;;;7.68;5.35;;;;;;;;;;4968958;28;20050;-86
2022/08/18 10:11:53;;;;;;;6.85;5.70;;;;;;;;;;4979316;28;20031;-85
2022/08/18 10:14:25;;;;;;;6.95;5.93;;;;;;;;;;4976515;28;20030;-82
2022/08/18 10:17:08;;;;;;;8.38;6.20;;;;;;;;;;4968773;28;20037;-85
2022/08/18 10:20:11;;;;;;;8.15;5.80;;;;;;;;;;4969471;28;20068;-83
2022/08/18 10:22:42;;;;;;;12.18;6.28;;;;;;;;;;4975185;28;20053;-86
2022/08/18 10:25:10;;;;;;;7.82;6.03;;;;;;;;;;4953184;28;20130;-85
2022/08/18 10:27:44;;;;;;;7.28;6.10;;;;;;;;;;4962391;28;20113;-85
2022/08/18 10:30:29;;;;;;;6.72;5.28;;;;;;;;;;4990506;28;20489;-84
2022/08/18 10:32:55;;;;;;;9.18;5.70;;;;;;;;;;4962971;28;20168;-84
2022/08/18 10:35:35;;;;;;;8.20;5.30;;;;;;;;;;4955876;28;20118;-85
2022/08/18 10:38:17;;;;;;;8.73;4.93;;;;;;;;;;4976897;28;21021;-85
2022/08/18 10:41:03;;;;;;;8.10;4.97;;;;;;;;;;4967578;28;20034;-84
2022/08/18 10:43:39;;;;;;;6.55;4.65;;;;;;;;;;4972342;28;20125;-84
2022/08/18 10:46:23;;;;;;;7.63;4.50;;;;;;;;;;4957295;28;20029;-84
2022/08/18 10:49:16;;;;;;;7.18;4.43;;;;;;;;;;4953099;28;20108;-85
2022/08/18 10:52:11;;;;;;;7.22;4.05;;;;;;;;;;4971289;28;20073;-85
2022/08/18 10:55:16;;;;;;;6.07;4.13;;;;;;;;;;4992145;28;20486;-85
2022/08/18 10:57:59;;;;;;;7.68;3.70;;;;;;;;;;4956693;28;20048;-85
2022/08/18 11:00:38;;;;;;;9.85;4.88;;;;;;;;;;4948634;28;20034;-86
2022/08/18 11:03:28;;;;;;;7.30;4.20;;;;;;;;;;4950499;28;20038;-85
2022/08/18 11:06:11;;;;;;;6.30;4.25;;;;;;;;;;4975292;28;20622;-86
2022/08/18 11:08:42;;;;;;;6.95;4.35;;;;;;;;;;4977011;28;20065;-85
2022/08/18 11:11:10;;;;;;;7.47;4.53;;;;;;;;;;4948250;28;20039;-85
2022/08/18 11:13:41;;;;;;;5.93;4.18;;;;;;;;;;4940342;28;20035;-84
2022/08/18 11:16:12;;;;;;;9.05;4.35;;;;;;;;;;4969436;28;20564;-84
2022/08/18 11:18:40;;;;;;;7.82;4.20;;;;;;;;;;4957581;28;20035;-85
2022/08/18 11:21:30;;;;;;;7.63;4.00;;;;;;;;;;4976062;28;20038;-85
2022/08/18 11:24:10;;;;;;;7.10;4.25;;;;;;;;;;4959272;28;20399;-85
2022/08/18 11:26:53;;;;;;;7.80;4.00;;;;;;;;;;4987817;28;20066;-84
2022/08/18 11:29:32;;;;;;;7.97;3.75;;;;;;;;;;4944593;28;20059;-85
2022/08/18 11:32:03;;;;;;;5.88;3.65;;;;;;;;;;4977665;28;20469;-83
2022/08/18 11:34:37;;;;;;;8.35;4.07;;;;;;;;;;4954937;28;20030;-84
2022/08/18 11:37:08;;;;;;;6.20;4.10;;;;;;;;;;4973250;28;20042;-84
2022/08/18 11:39:41;;;;;;;6.32;4.20;;;;;;;;;;4947431;28;20039;-84
2022/08/18 11:42:08;;;;;;;7.05;4.30;;;;;;;;;;4944546;28;20443;-85
2022/08/18 11:44:36;;;;;;;6.80;4.20;;;;;;;;;;4943355;28;20088;-84
2022/08/18 11:47:27;;;;;;;6.72;4.60;;;;;;;;;;4944892;28;20415;-85
2022/08/18 11:50:07;;;;;;;6.50;4.85;;;;;;;;;;4950842;28;20043;-84
2022/08/18 11:52:51;;;;;;;9.77;4.57;;;;;;;;;;4944215;28;20467;-84
2022/08/18 11:55:20;;;;;;;6.55;4.22;;;;;;;;;;4962666;28;20133;-83
2022/08/18 11:57:56;;;;;;;6.10;4.57;;;;;;;;;;4978269;28;20042;-83
2022/08/18 12:00:35;;;;;;;5.70;4.25;;;;;;;;;;4955722;28;20118;-84
2022/08/18 12:03:03;;;;;;;8.88;4.55;;;;;;;;;;4974668;28;20371;-84
2022/08/18 12:05:28;;;;;;;7.88;5.13;;;;;;;;;;4964549;28;20113;-85
2022/08/18 12:07:53;;;;;;;7.43;4.93;;;;;;;;;;4972512;28;20137;-83
2022/08/18 12:10:26;;;;;;;6.43;4.60;;;;;;;;;;4938021;28;20046;-83
2022/08/18 12:12:52;;;;;;;5.35;4.22;;;;;;;;;;4976633;28;20073;-84
2022/08/18 12:15:18;;;;;;;7.27;4.53;;;;;;;;;;4981564;28;20034;-85
2022/08/18 12:17:45;;;;;;;7.60;3.90;;;;;;;;;;4975295;28;20045;-84
2022/08/18 12:20:13;;;;;;;5.15;4.00;;;;;;;;;;4956079;28;20047;-84
2022/08/18 12:22:42;;;;;;;7.90;4.35;;;;;;;;;;4937050;28;20046;-84
2022/08/18 12:25:12;;;;;;;5.90;4.13;;;;;;;;;;4960084;28;20474;-84
2022/08/18 12:27:37;;;;;;;6.25;3.92;;;;;;;;;;4959048;28;20070;-85
2022/08/18 12:30:04;;;;;;;7.05;3.50;;;;;;;;;;4933285;28;20055;-84
2022/08/18 12:32:31;;;;;;;;;;;;;;;;;;4962496;28;20033;-85
2022/08/18 12:34:56;;;;;;;6.57;5.00;;;;;;;;;;4964775;28;19914;-86
2022/08/18 12:37:24;;;;;;;7.93;6.00;;;;;;;;;;4941703;28;20050;-85
2022/08/18 12:39:51;;;;;;;7.40;5.50;;;;;;;;;;4946520;28;20039;-85
2022/08/18 12:42:17;;;;;;;9.10;5.20;;;;;;;;;;4942900;28;20463;-85
2022/08/18 12:44:42;;;;;;;8.45;6.13;;;;;;;;;;4958767;28;20034;-85
2022/08/18 12:47:16;;;;;;;9.48;5.55;;;;;;;;;;4958048;28;20452;-85
2022/08/18 12:49:41;;;;;;;8.02;5.68;;;;;;;;;;4944808;28;20560;-84
2022/08/18 12:52:08;;;;;;;6.95;5.43;;;;;;;;;;4958282;28;20026;-85
2022/08/18 12:54:34;;;;;;;7.57;5.13;;;;;;;;;;4964116;28;20046;-85
2022/08/18 12:57:00;;;;;;;6.03;4.82;;;;;;;;;;4955662;28;20328;-85
2022/08/18 12:59:26;;;;;;;8.53;5.10;;;;;;;;;;4963846;28;20041;-85
2022/08/18 13:01:52;;;;;;;8.32;5.45;;;;;;;;;;4950342;28;20034;-85
2022/08/18 13:04:21;;;;;;;6.60;5.30;;;;;;;;;;4944293;28;20045;-85
2022/08/18 13:06:54;;;;;;;7.80;5.38;;;;;;;;;;4949543;28;20041;-86
2022/08/18 13:09:20;;;;;;;6.40;5.00;;;;;;;;;;4953195;28;20513;-85
2022/08/18 13:11:45;;;;;;;8.52;5.30;;;;;;;;;;4962447;28;20030;-85
2022/08/18 13:14:11;;;;;;;6.65;4.72;;;;;;;;;;4956958;28;20169;-85
2022/08/18 13:16:39;;;;;;;7.43;4.80;;;;;;;;;;4947459;28;20039;-84
2022/08/18 13:19:05;;;;;;;6.93;4.80;;;;;;;;;;4979378;28;20030;-85
2022/08/18 13:21:30;;;;;;;7.95;5.00;;;;;;;;;;4959794;28;20042;-85
2022/08/18 13:23:57;;;;;;;5.97;4.68;;;;;;;;;;4962610;28;20101;-85
2022/08/18 13:26:29;;;;;;;7.15;4.68;;;;;;;;;;4975259;28;20486;-84
2022/08/18 13:28:55;;;;;;;7.35;4.40;;;;;;;;;;4947417;28;20049;-85
2022/08/18 13:31:21;;;;;;;8.83;4.80;;;;;;;;;;4983520;28;20476;-84
2022/08/18 13:33:46;;;;;;;8.40;4.82;;;;;;;;;;4948135;28;20105;-85
2022/08/18 13:36:11;;;;;;;6.47;4.75;;;;;;;;;;4971571;28;20622;-85
2022/08/18 13:38:39;;;;;;;7.45;4.25;;;;;;;;;;4949285;28;20442;-85
2022/08/18 13:41:04;;;;;;;6.10;4.22;;;;;;;;;;4967454;28;20053;-85
2022/08/18 13:43:32;;;;;;;4.72;3.83;;;;;;;;;;4967252;28;20042;-85
2022/08/18 13:45:58;;;;;;;5.93;3.90;;;;;;;;;;4976405;28;20042;-85
2022/08/18 13:48:24;;;;;;;6.43;4.00;;;;;;;;;;4977933;28;20521;-84
2022/08/18 13:50:52;;;;;;;8.52;4.47;;;;;;;;;;4948895;28;20270;-84
2022/08/18 13:53:18;;;;;;;6.28;3.88;;;;;;;;;;4948223;28;20117;-84
2022/08/18 13:55:45;;;;;;;4.67;3.70;;;;;;;;;;4957474;28;20027;-85
2022/08/18 13:58:11;;;;;;;6.88;3.83;;;;;;;;;;4979579;28;20277;-85
2022/08/18 14:00:37;;;;;;;6.15;3.80;;;;;;;;;;4966741;28;20073;-85
2022/08/18 14:03:03;;;;;;;9.93;3.92;;;;;;;;;;4958878;28;20038;-84
2022/08/18 14:05:30;;;;;;;4.88;3.88;;;;;;;;;;4958268;28;20505;-85
2022/08/18 14:07:55;;;;;;;6.47;4.03;;;;;;;;;;4950586;28;20033;-84
2022/08/18 14:10:21;;;;;;;5.15;3.90;;;;;;;;;;4968323;28;20852;-83
2022/08/18 14:12:46;;;;;;;6.53;4.20;;;;;;;;;;4947520;28;20045;-84
2022/08/18 14:15:14;;;;;;;7.25;4.03;;;;;;;;;;4976496;28;20471;-84
2022/08/18 14:17:39;;;;;;;5.80;4.07;;;;;;;;;;4947792;28;20099;-84
2022/08/18 14:28:20;;;;;;;6.32;4.60;;;;;;;;;;4975721;28;20054;-85
2022/08/18 14:30:45;;;;;;;8.90;4.70;;;;;;;;;;4971213;28;20038;-85
2022/08/18 14:33:13;;;;;;;6.63;4.70;;;;;;;;;;4954315;28;20034;-85
2022/08/18 14:35:40;;;;;;;5.53;4.20;;;;;;;;;;4963707;28;20039;-86
2022/08/18 14:38:07;;;;;;;6.87;4.27;;;;;;;;;;4949581;28;20434;-85
2022/08/18 14:40:32;;;;;;;;;;;;;;;;;;4971687;28;20034;-85
2022/08/18 14:42:57;;;;;;;8.43;5.07;;;;;;;;;;4975510;28;19924;-84
2022/08/18 14:45:24;;;;;;;7.57;4.55;;;;;;;;;;4973292;28;20133;-85
2022/08/18 14:47:52;;;;;;;7.00;4.97;;;;;;;;;;4964440;28;20125;-85
2022/08/18 14:50:18;;;;;;;5.38;4.50;;;;;;;;;;4958160;28;20394;-86
2022/08/18 14:52:44;;;;;;;6.57;4.63;;;;;;;;;;4950362;28;20039;-85
2022/08/18 14:55:10;;;;;;;6.63;4.57;;;;;;;;;;4948970;28;20281;-85
2022/08/18 14:57:37;;;;;;;10.23;5.10;;;;;;;;;;4973684;28;20483;-85
2022/08/18 15:00:03;;;;;;;;;;;;;;;;;;4946101;28;20050;-86
2022/08/18 15:02:32;;;;;;;;;;;;;;;;;;4975575;28;19961;-85
2022/08/18 15:04:57;;;;;;;8.25;4.68;;;;;;;;;;4973909;28;20394;-85
2022/08/18 15:07:23;;;;;;;8.60;4.57;;;;;;;;;;4962499;28;20248;-83
2022/08/18 15:09:48;;;;;;;5.97;4.35;;;;;;;;;;4976621;28;20061;-83
2022/08/18 15:12:14;;;;;;;5.68;4.40;;;;;;;;;;4954275;28;20178;-84
2022/08/18 15:14:39;;;;;;;6.85;4.32;;;;;;;;;;4960700;28;20405;-84
2022/08/18 15:17:08;;;;;;;9.88;4.70;;;;;;;;;;4945415;28;20106;-85
2022/08/18 15:19:36;;;;;;;6.43;4.45;;;;;;;;;;4975117;28;20062;-84
2022/08/18 15:27:30;;;;;;;7.45;4.30;;;;;;;;;;4976246;28;20460;-85
2022/08/18 15:30:10;;;;;;;7.45;4.93;;;;;;;;;;4962483;28;20038;-85
2022/08/18 15:32:37;;;;;;;5.63;4.43;;;;;;;;;;4947101;28;20118;-84
2022/08/18 15:35:02;;;;;;;8.25;4.72;;;;;;;;;;4975808;28;20108;-85
2022/08/18 15:37:28;;;;;;;8.02;4.70;;;;;;;;;;4962114;28;20058;-84
2022/08/18 15:40:04;;;;;;;8.02;4.38;;;;;;;;;;4970470;28;20129;-85
2022/08/18 15:42:32;;;;;;;6.90;4.72;;;;;;;;;;4964786;28;20046;-85